Mcleod Lake, Canada
Current Conditions -  °F | °C
As of 2:00 AM on Friday 28 Nov 2014 (Local Time) from CYZY Reporting Station
Overcast Overcast  
Wind Chill: -17°   Ceiling: 9300
Heat Index:   Visibility: 9mi
Dew Point: -17°   Wind: 10mph
Humidity: 46%   Direction: 60°ENE
Pressure: 29.95"   Gusts: 23mph
Location:  55°N, 123.03°W
Report Text: CYZY 281000Z AUTO 06009G20KT 360V110 9SM FEW044 OVC093 M18/M27 A2995 RMK SLP206
Loading
Personal Weather Stations






























Interactive Weather Map New forecast layout! Learn more

10-Day Weather Forecast

Advertisements
Track Severe Weather on mobile